AirNav   Pilot Hours Calculator
 
 1089 users online  

78WA Center Island Airport
Center Island, Washington, USA

GOING TO CENTER ISLAND?


FAA INFORMATION EFFECTIVE 11 AUGUST 2022

Location

FAA Identifier: 78WA
Lat/Long: 48-29-24.3640N 122-49-55.6360W
48-29.406067N 122-49.927267W
48.4901011,-122.8321211
(estimated)
Elevation: 115 ft. / 35 m (estimated)
Variation: 21E (1985)
Time zone: UTC -7 (UTC -8 during Standard Time)
Zip code: 98221

Airport Operations

Airport use: Private use. Permission required prior to landing
Activation date: 11/1978
Control tower: no
ARTCC: SEATTLE CENTER
FSS: SEATTLE FLIGHT SERVICE STATION
Attendance: UNATNDD
Wind indicator: yes
Segmented circle: no
Lights: SS-SR

Airport Communications

WX ASOS at FHR (8 nm W): 135.675 (360-378-8491)
WX ASOS at NUW (11 nm SE): PHONE 360-257-8813
WX AWOS-3 at ORS (13 nm N): 135.425 (360-376-6045)
WX AWOS-3 at OKH (16 nm SE): 132.775 (360-675-8431)
WX AWOS-3 at BVS (16 nm E): 121.125 (360-757-7767)

Nearby radio navigation aids

VOR radial/distance  VOR name  Freq  Var
CVVr325/15.3PENN COVE VOR/DME117.2019E
HUHr180/29.1WHATCOM VORTAC113.0020E
YYJr102/29.5VICTORIA VOR/DME113.7017E
YVRr143/37.4VANCOUVER VOR/DME115.9017E

 
NDB name  Hdg/Dist  Freq  Var  ID
FRIDAY HARBOR083/7.728417EFHR ..-. .... .-.
SKAGIT/BAY VIEW258/16.524016EBVS -... ...- ...
EDIZ HOOK030/31.033817ENOW -. --- .--

Airport Services

Runway Information

Runway 17/35

Dimensions: 1600 x 100 ft. / 488 x 30 m
Surface: turf/gravel
Runway edge lights: low intensity
RUNWAY 17  RUNWAY 35
Traffic pattern: leftright
Obstructions: 50 ft. trees, 100 ft. from runway100 ft. trees, 50 ft. from runway

Airport Ownership and Management from official FAA records

Ownership: Privately-owned
Owner: CENTER ISLAND ASSOCIATION
C/O KIRKLAND ACCOUNTING, 801 MARKET ST
KIRKLAND, WA 98803-9461
Phone 425-822-0234
MAIL CORRESPONDENCES TO: C/O CENTER ISLAND ASSOC KIRKLAND ACCOUNTING 801 MARKET ST KIRKLAND WA 98033 425-822-0234
Manager: RICH DOSS
CENTER ISLAND
ANACORTES, WA 98221-9461
Phone 360-488-5836
OR 206-481-0326/206-743-1700 (WORK).

Airport Operational Statistics

Aircraft based on the field: 3
Single engine airplanes: 3
    

Additional Remarks

PPR FOR LANDING; TRNG OPNS PROHIBITED.
FOR CD CTC SEATTLE ARTCC AT 253-351-3694.

Instrument Procedures

There are no published instrument procedures at 78WA.

Some nearby airports with instrument procedures:

KFHR - Friday Harbor Airport (8 nm W)
KNUW - Whidbey Island Naval Air Station (Ault Field) Airport (11 nm SE)
KORS - Orcas Island Airport (13 nm N)
KOKH - AJ Eisenberg Airport (16 nm SE)
KBVS - Skagit Regional Airport (16 nm E)
 
Loc | Ops | Rwys | IFR | FBO | Links
Com | Nav | Svcs | Stats | Notes
Area around 78WA (Center Island Airport)
 
Road maps at: MapQuest Bing Google
 
Aerial photo
WARNING: Photo may not be current or correct
Aerial photo of 78WA (Center Island Airport)
Do you have a better or more recent aerial photo of Center Island Airport that you would like to share? If so, please send us your photo.

 
Sectional chart

 
Airport distance calculator
Flying to Center Island Airport? Find the distance to fly.

From to 78WA

Sunrise and sunset
Times for 16-Aug-2022
 Local
(UTC-7)
 Zulu
(UTC)
Morning civil twilight05:3312:33
Sunrise06:0713:07
Sunset20:2403:24
Evening civil twilight20:5803:58

Current date and time
Zulu (UTC)  17-Aug-2022 03:00:04
Local (UTC-7)  16-Aug-2022 20:00:04
 
METAR
KFHR 
8nm W 
170253Z AUTO 00000KT 10SM CLR 17/12 A3002 RMK AO2 SLP166 T01670117 56009
KNUW 
11nm SE 
170153Z 23006KT 10SM FEW080 FEW250 16/12 A3007 RMK SLP181 T01560117
KORS 
13nm N 
170255Z AUTO 00000KT 10SM CLR 19/15 A3000 RMK AO2
CWZO 
16nm W 
170200Z AUTO 17006KT RMK AO1
KBVS 
17nm E 
170235Z AUTO 00000KT 9SM CLR 21/11 A3001 RMK A01
CWYJ 
18nm W 
170200Z AUTO 22003KT 25/13 RMK AO1 SLP167 T02490132 57010
CWEZ 
18nm NW 
170200Z AUTO 33004KT 20/16 RMK AO1 SLP162 T01950155 57011
CWLM 
20nm W 
170200Z AUTO 23004KT 18/12 RMK AO1 SLP167 T01810115 56010
CYWH 
20nm W 
170200Z 24004KT 15SM SKC 17/13 A3002 RMK SLP168 DENSITY ALT 100FT
TAF
KNUW 
11nm SE 
1700/1723 26008KT 9999 FEW060 FEW250 QNH3004INS TEMPO 1712/1715 22005KT 8000 BR SCT005 BKN012 FM171600 24008KT 9999 SCT025 SCT150 BKN250 QNH3000INS FM171800 25008KT 9999 FEW040 FEW250 QNH3006INS T11/1711Z T21/1722Z COR 1705 FS30188
CYWH 
20nm W 
162043Z 1621/1704 22005KT P6SM FEW150 SCT220 RMK NXT FCST BY 171400Z
NOTAMs
Click for the latest NOTAMs
NOTAMs are issued by the DoD/FAA and will open in a separate window not controlled by AirNav.

 

 
 

Would you like to see your business listed on this page?

 If your business provides an interesting product or service to pilots, flight crews, aircraft, or users of the Center Island Airport, you should consider listing it here.  To start the listing process, click on the button below
 
Add a business
 

Other Pages about Center Island Airport

Update a link
 
Copyright © AirNav, LLC. All rights reserved. Privacy Policy  Contact